sensor_id;sensor_type;location;lat;lon;timestamp;pressure;altitude;pressure_sealevel;temperature;humidity
66090;BME280;53113;45.602;11.904;2023-03-13T00:00:52;101658.75;;;6.29;50.47
66090;BME280;53113;45.602;11.904;2023-03-13T00:03:18;101661.54;;;6.25;50.55
66090;BME280;53113;45.602;11.904;2023-03-13T00:05:43;101666.95;;;6.22;50.72
66090;BME280;53113;45.602;11.904;2023-03-13T00:08:09;101670.59;;;6.19;50.83
66090;BME280;53113;45.602;11.904;2023-03-13T00:10:40;101673.27;;;6.14;50.94
66090;BME280;53113;45.602;11.904;2023-03-13T00:13:06;101675.34;;;6.11;50.84
66090;BME280;53113;45.602;11.904;2023-03-13T00:15:32;101678.01;;;6.06;50.99
66090;BME280;53113;45.602;11.904;2023-03-13T00:17:58;101676.23;;;6.02;51.06
66090;BME280;53113;45.602;11.904;2023-03-13T00:20:23;101677.84;;;5.97;51.19
66090;BME280;53113;45.602;11.904;2023-03-13T00:22:49;101679.94;;;5.92;51.33
66090;BME280;53113;45.602;11.904;2023-03-13T00:25:14;101681.62;;;5.89;51.46
66090;BME280;53113;45.602;11.904;2023-03-13T00:27:40;101679.11;;;5.86;51.74
66090;BME280;53113;45.602;11.904;2023-03-13T00:30:05;101678.59;;;5.82;51.78
66090;BME280;53113;45.602;11.904;2023-03-13T00:32:32;101677.48;;;5.79;51.93
66090;BME280;53113;45.602;11.904;2023-03-13T00:34:57;101678.75;;;5.74;52.12
66090;BME280;53113;45.602;11.904;2023-03-13T00:37:23;101671.47;;;5.67;52.10
66090;BME280;53113;45.602;11.904;2023-03-13T00:39:48;101679.27;;;5.65;52.05
66090;BME280;53113;45.602;11.904;2023-03-13T00:42:14;101681.67;;;5.62;52.00
66090;BME280;53113;45.602;11.904;2023-03-13T00:44:39;101673.59;;;5.58;52.00
66090;BME280;53113;45.602;11.904;2023-03-13T00:47:05;101677.73;;;5.55;51.99
66090;BME280;53113;45.602;11.904;2023-03-13T00:49:31;101676.83;;;5.51;51.99
66090;BME280;53113;45.602;11.904;2023-03-13T00:51:57;101675.27;;;5.46;52.13
66090;BME280;53113;45.602;11.904;2023-03-13T00:54:22;101675.75;;;5.43;52.22
66090;BME280;53113;45.602;11.904;2023-03-13T00:56:48;101679.20;;;5.40;52.27
66090;BME280;53113;45.602;11.904;2023-03-13T00:59:13;101673.35;;;5.37;52.29
66090;BME280;53113;45.602;11.904;2023-03-13T01:01:39;101668.38;;;5.34;52.46
66090;BME280;53113;45.602;11.904;2023-03-13T01:04:09;101670.56;;;5.32;52.42
66090;BME280;53113;45.602;11.904;2023-03-13T01:06:36;101672.95;;;5.29;52.52
66090;BME280;53113;45.602;11.904;2023-03-13T01:09:03;101673.53;;;5.28;52.58
66090;BME280;53113;45.602;11.904;2023-03-13T01:11:30;101671.70;;;5.25;52.84
66090;BME280;53113;45.602;11.904;2023-03-13T01:13:56;101667.20;;;5.24;52.98
66090;BME280;53113;45.602;11.904;2023-03-13T01:16:23;101668.48;;;5.22;53.18
66090;BME280;53113;45.602;11.904;2023-03-13T01:18:52;101666.13;;;5.20;53.28
66090;BME280;53113;45.602;11.904;2023-03-13T01:21:18;101659.73;;;5.16;53.40
66090;BME280;53113;45.602;11.904;2023-03-13T01:23:44;101659.41;;;5.16;53.40
66090;BME280;53113;45.602;11.904;2023-03-13T01:26:10;101659.66;;;5.14;53.64
66090;BME280;53113;45.602;11.904;2023-03-13T01:28:35;101656.05;;;5.12;53.85
66090;BME280;53113;45.602;11.904;2023-03-13T01:31:09;101652.77;;;5.10;53.89
66090;BME280;53113;45.602;11.904;2023-03-13T01:33:34;101654.91;;;5.09;54.12
66090;BME280;53113;45.602;11.904;2023-03-13T01:36:00;101645.73;;;5.06;54.19
66090;BME280;53113;45.602;11.904;2023-03-13T01:38:26;101645.02;;;5.06;54.37
66090;BME280;53113;45.602;11.904;2023-03-13T01:40:52;101642.46;;;5.05;54.47
66090;BME280;53113;45.602;11.904;2023-03-13T01:43:21;101642.14;;;5.04;54.60
66090;BME280;53113;45.602;11.904;2023-03-13T01:45:50;101636.05;;;5.02;54.66
66090;BME280;53113;45.602;11.904;2023-03-13T01:48:18;101639.23;;;5.02;54.69
66090;BME280;53113;45.602;11.904;2023-03-13T01:50:44;101643.14;;;5.00;54.68
66090;BME280;53113;45.602;11.904;2023-03-13T01:53:10;101645.81;;;4.99;54.71
66090;BME280;53113;45.602;11.904;2023-03-13T01:55:36;101645.55;;;4.98;54.68
66090;BME280;53113;45.602;11.904;2023-03-13T01:58:01;101645.39;;;4.97;54.68
66090;BME280;53113;45.602;11.904;2023-03-13T02:00:28;101635.98;;;4.95;54.76
66090;BME280;53113;45.602;11.904;2023-03-13T02:02:57;101630.09;;;4.93;54.66
66090;BME280;53113;45.602;11.904;2023-03-13T02:05:25;101630.84;;;4.91;54.72
66090;BME280;53113;45.602;11.904;2023-03-13T02:07:54;101634.58;;;4.90;54.81
66090;BME280;53113;45.602;11.904;2023-03-13T02:10:21;101631.99;;;4.89;54.85
66090;BME280;53113;45.602;11.904;2023-03-13T02:12:47;101631.53;;;4.87;54.98
66090;BME280;53113;45.602;11.904;2023-03-13T02:15:17;101625.76;;;4.87;55.04
66090;BME280;53113;45.602;11.904;2023-03-13T02:17:43;101627.70;;;4.86;55.14
66090;BME280;53113;45.602;11.904;2023-03-13T02:20:09;101632.47;;;4.85;55.23
66090;BME280;53113;45.602;11.904;2023-03-13T02:27:44;101637.58;;;4.85;55.82
66090;BME280;53113;45.602;11.904;2023-03-13T02:30:11;101633.17;;;4.85;56.12
66090;BME280;53113;45.602;11.904;2023-03-13T02:32:37;101628.10;;;4.85;56.28
66090;BME280;53113;45.602;11.904;2023-03-13T02:35:07;101632.98;;;4.86;56.32
66090;BME280;53113;45.602;11.904;2023-03-13T02:37:33;101640.38;;;4.85;56.38
66090;BME280;53113;45.602;11.904;2023-03-13T02:40:00;101642.64;;;4.86;56.34
66090;BME280;53113;45.602;11.904;2023-03-13T02:42:28;101638.94;;;4.86;56.38
66090;BME280;53113;45.602;11.904;2023-03-13T02:44:54;101637.11;;;4.88;56.34
66090;BME280;53113;45.602;11.904;2023-03-13T02:47:20;101637.44;;;4.89;56.32
66090;BME280;53113;45.602;11.904;2023-03-13T02:49:46;101634.95;;;4.90;56.38
66090;BME280;53113;45.602;11.904;2023-03-13T02:54:40;101637.66;;;4.92;56.65
66090;BME280;53113;45.602;11.904;2023-03-13T02:57:07;101641.82;;;4.94;56.62
66090;BME280;53113;45.602;11.904;2023-03-13T02:59:33;101637.77;;;4.94;56.62
66090;BME280;53113;45.602;11.904;2023-03-13T03:01:59;101642.95;;;4.96;56.75
66090;BME280;53113;45.602;11.904;2023-03-13T03:04:24;101646.41;;;4.98;56.70
66090;BME280;53113;45.602;11.904;2023-03-13T03:06:51;101642.86;;;4.99;56.69
66090;BME280;53113;45.602;11.904;2023-03-13T03:09:17;101642.80;;;5.00;56.80
66090;BME280;53113;45.602;11.904;2023-03-13T03:11:43;101648.04;;;5.01;56.71
66090;BME280;53113;45.602;11.904;2023-03-13T03:14:09;101643.97;;;5.02;56.71
66090;BME280;53113;45.602;11.904;2023-03-13T03:16:35;101637.98;;;5.03;56.71
66090;BME280;53113;45.602;11.904;2023-03-13T03:19:00;101637.23;;;5.04;56.73
66090;BME280;53113;45.602;11.904;2023-03-13T03:21:26;101640.33;;;5.05;56.92
66090;BME280;53113;45.602;11.904;2023-03-13T03:23:52;101636.60;;;5.06;56.93
66090;BME280;53113;45.602;11.904;2023-03-13T03:26:17;101632.31;;;5.08;57.07
66090;BME280;53113;45.602;11.904;2023-03-13T03:28:43;101634.20;;;5.09;57.22
66090;BME280;53113;45.602;11.904;2023-03-13T03:31:09;101648.56;;;5.10;57.15
66090;BME280;53113;45.602;11.904;2023-03-13T03:33:36;101656.56;;;5.13;57.19
66090;BME280;53113;45.602;11.904;2023-03-13T03:36:02;101653.32;;;5.15;57.15
66090;BME280;53113;45.602;11.904;2023-03-13T03:38:28;101651.15;;;5.16;57.29
66090;BME280;53113;45.602;11.904;2023-03-13T03:40:54;101665.96;;;5.19;57.50
66090;BME280;53113;45.602;11.904;2023-03-13T03:43:20;101666.03;;;5.22;57.49
66090;BME280;53113;45.602;11.904;2023-03-13T03:45:45;101655.39;;;5.25;57.46
66090;BME280;53113;45.602;11.904;2023-03-13T03:48:11;101651.44;;;5.27;57.66
66090;BME280;53113;45.602;11.904;2023-03-13T03:50:36;101647.84;;;5.29;57.98
66090;BME280;53113;45.602;11.904;2023-03-13T03:53:02;101639.51;;;5.31;58.23
66090;BME280;53113;45.602;11.904;2023-03-13T03:55:28;101628.70;;;5.33;58.44
66090;BME280;53113;45.602;11.904;2023-03-13T03:57:53;101624.91;;;5.36;58.83
66090;BME280;53113;45.602;11.904;2023-03-13T04:00:19;101622.73;;;5.38;59.06
66090;BME280;53113;45.602;11.904;2023-03-13T04:02:45;101623.70;;;5.40;59.28
66090;BME280;53113;45.602;11.904;2023-03-13T04:05:10;101633.77;;;5.43;59.61
66090;BME280;53113;45.602;11.904;2023-03-13T04:07:36;101634.02;;;5.46;59.78
66090;BME280;53113;45.602;11.904;2023-03-13T04:10:02;101639.86;;;5.48;59.86
66090;BME280;53113;45.602;11.904;2023-03-13T04:12:28;101639.53;;;5.52;59.86
66090;BME280;53113;45.602;11.904;2023-03-13T04:14:53;101638.54;;;5.55;59.91
66090;BME280;53113;45.602;11.904;2023-03-13T04:17:19;101637.74;;;5.58;60.24
66090;BME280;53113;45.602;11.904;2023-03-13T04:19:45;101650.11;;;5.61;60.05
66090;BME280;53113;45.602;11.904;2023-03-13T04:22:10;101655.61;;;5.64;59.99
66090;BME280;53113;45.602;11.904;2023-03-13T04:24:36;101653.04;;;5.66;59.95
66090;BME280;53113;45.602;11.904;2023-03-13T04:27:02;101653.70;;;5.67;59.83
66090;BME280;53113;45.602;11.904;2023-03-13T04:29:31;101662.52;;;5.71;59.93
66090;BME280;53113;45.602;11.904;2023-03-13T04:31:57;101667.89;;;5.73;59.87
66090;BME280;53113;45.602;11.904;2023-03-13T04:34:22;101673.95;;;5.75;59.86
66090;BME280;53113;45.602;11.904;2023-03-13T04:36:48;101671.77;;;5.77;59.73
66090;BME280;53113;45.602;11.904;2023-03-13T04:39:13;101674.85;;;5.79;59.64
66090;BME280;53113;45.602;11.904;2023-03-13T04:41:39;101681.11;;;5.81;59.64
66090;BME280;53113;45.602;11.904;2023-03-13T04:44:05;101681.94;;;5.82;59.79
66090;BME280;53113;45.602;11.904;2023-03-13T04:46:30;101678.55;;;5.83;59.81
66090;BME280;53113;45.602;11.904;2023-03-13T04:49:05;101671.82;;;5.84;59.98
66090;BME280;53113;45.602;11.904;2023-03-13T04:51:30;101672.11;;;5.86;59.96
66090;BME280;53113;45.602;11.904;2023-03-13T04:53:56;101687.87;;;5.87;60.00
66090;BME280;53113;45.602;11.904;2023-03-13T04:56:23;101695.38;;;5.88;60.00
66090;BME280;53113;45.602;11.904;2023-03-13T04:58:49;101697.98;;;5.89;60.09
66090;BME280;53113;45.602;11.904;2023-03-13T05:01:14;101700.45;;;5.89;60.27
66090;BME280;53113;45.602;11.904;2023-03-13T05:03:40;101701.95;;;5.91;60.38
66090;BME280;53113;45.602;11.904;2023-03-13T05:06:06;101700.02;;;5.91;60.57
66090;BME280;53113;45.602;11.904;2023-03-13T05:08:32;101694.73;;;5.91;60.47
66090;BME280;53113;45.602;11.904;2023-03-13T05:10:57;101693.24;;;5.93;60.49
66090;BME280;53113;45.602;11.904;2023-03-13T05:13:23;101696.37;;;5.95;60.46
66090;BME280;53113;45.602;11.904;2023-03-13T05:15:48;101689.80;;;5.97;60.54
66090;BME280;53113;45.602;11.904;2023-03-13T05:18:14;101690.25;;;5.98;60.42
66090;BME280;53113;45.602;11.904;2023-03-13T05:20:39;101699.29;;;6.01;60.49
66090;BME280;53113;45.602;11.904;2023-03-13T05:23:05;101697.83;;;6.03;60.47
66090;BME280;53113;45.602;11.904;2023-03-13T05:25:30;101709.14;;;6.05;60.69
66090;BME280;53113;45.602;11.904;2023-03-13T05:27:56;101709.95;;;6.07;60.79
66090;BME280;53113;45.602;11.904;2023-03-13T05:30:21;101707.93;;;6.09;60.95
66090;BME280;53113;45.602;11.904;2023-03-13T05:32:47;101711.39;;;6.10;60.96
66090;BME280;53113;45.602;11.904;2023-03-13T05:35:12;101707.62;;;6.12;60.98
66090;BME280;53113;45.602;11.904;2023-03-13T05:37:38;101705.95;;;6.14;60.97
66090;BME280;53113;45.602;11.904;2023-03-13T05:40:04;101706.92;;;6.16;61.03
66090;BME280;53113;45.602;11.904;2023-03-13T05:42:29;101704.18;;;6.19;61.02
66090;BME280;53113;45.602;11.904;2023-03-13T05:44:55;101695.30;;;6.21;61.04
66090;BME280;53113;45.602;11.904;2023-03-13T05:47:20;101693.62;;;6.23;60.94
66090;BME280;53113;45.602;11.904;2023-03-13T05:49:46;101692.12;;;6.25;60.84
66090;BME280;53113;45.602;11.904;2023-03-13T05:52:11;101693.40;;;6.28;60.95
66090;BME280;53113;45.602;11.904;2023-03-13T05:54:37;101695.78;;;6.30;60.77
66090;BME280;53113;45.602;11.904;2023-03-13T05:57:02;101690.75;;;6.33;60.94
66090;BME280;53113;45.602;11.904;2023-03-13T05:59:28;101690.64;;;6.36;61.09
66090;BME280;53113;45.602;11.904;2023-03-13T06:01:54;101692.11;;;6.37;61.29
66090;BME280;53113;45.602;11.904;2023-03-13T06:04:19;101693.11;;;6.39;61.56
66090;BME280;53113;45.602;11.904;2023-03-13T06:06:45;101691.10;;;6.41;61.76
66090;BME280;53113;45.602;11.904;2023-03-13T06:09:10;101687.52;;;6.43;61.89
66090;BME280;53113;45.602;11.904;2023-03-13T06:11:36;101691.11;;;6.45;61.83
66090;BME280;53113;45.602;11.904;2023-03-13T06:14:01;101693.09;;;6.48;61.72
66090;BME280;53113;45.602;11.904;2023-03-13T06:16:27;101693.62;;;6.52;61.78
66090;BME280;53113;45.602;11.904;2023-03-13T06:18:52;101694.98;;;6.57;61.84
66090;BME280;53113;45.602;11.904;2023-03-13T06:21:18;101695.89;;;6.61;61.87
66090;BME280;53113;45.602;11.904;2023-03-13T06:23:44;101702.88;;;6.66;61.93
66090;BME280;53113;45.602;11.904;2023-03-13T06:26:09;101694.95;;;6.70;62.04
66090;BME280;53113;45.602;11.904;2023-03-13T06:28:35;101689.09;;;6.75;61.85
66090;BME280;53113;45.602;11.904;2023-03-13T06:31:01;101681.60;;;6.81;62.11
66090;BME280;53113;45.602;11.904;2023-03-13T06:33:27;101674.70;;;6.86;62.42
66090;BME280;53113;45.602;11.904;2023-03-13T06:35:52;101679.78;;;6.91;62.52
66090;BME280;53113;45.602;11.904;2023-03-13T06:38:18;101684.64;;;6.96;62.42
66090;BME280;53113;45.602;11.904;2023-03-13T06:40:43;101681.91;;;7.02;62.52
66090;BME280;53113;45.602;11.904;2023-03-13T06:43:09;101674.73;;;7.08;62.54
66090;BME280;53113;45.602;11.904;2023-03-13T06:45:35;101677.05;;;7.15;62.70
66090;BME280;53113;45.602;11.904;2023-03-13T06:48:01;101684.14;;;7.22;62.93
66090;BME280;53113;45.602;11.904;2023-03-13T06:50:26;101684.20;;;7.29;62.93
66090;BME280;53113;45.602;11.904;2023-03-13T06:52:52;101681.19;;;7.37;62.98
66090;BME280;53113;45.602;11.904;2023-03-13T06:55:17;101681.02;;;7.43;63.05
66090;BME280;53113;45.602;11.904;2023-03-13T06:57:42;101691.92;;;7.51;63.12
66090;BME280;53113;45.602;11.904;2023-03-13T07:00:09;101700.18;;;7.59;63.09
66090;BME280;53113;45.602;11.904;2023-03-13T07:02:35;101706.28;;;7.68;62.98
66090;BME280;53113;45.602;11.904;2023-03-13T07:05:01;101706.60;;;7.76;63.15
66090;BME280;53113;45.602;11.904;2023-03-13T07:07:30;101706.36;;;7.85;63.13
66090;BME280;53113;45.602;11.904;2023-03-13T07:09:57;101700.34;;;7.93;63.34
66090;BME280;53113;45.602;11.904;2023-03-13T07:12:23;101699.79;;;8.00;63.48
66090;BME280;53113;45.602;11.904;2023-03-13T07:14:48;101702.04;;;8.08;63.54
66090;BME280;53113;45.602;11.904;2023-03-13T07:17:14;101701.45;;;8.17;63.65
66090;BME280;53113;45.602;11.904;2023-03-13T07:19:39;101703.16;;;8.24;63.59
66090;BME280;53113;45.602;11.904;2023-03-13T07:22:05;101705.34;;;8.34;63.58
66090;BME280;53113;45.602;11.904;2023-03-13T07:24:30;101708.81;;;8.42;63.75
66090;BME280;53113;45.602;11.904;2023-03-13T07:26:56;101707.69;;;8.51;64.00
66090;BME280;53113;45.602;11.904;2023-03-13T07:29:22;101701.90;;;8.60;64.08
66090;BME280;53113;45.602;11.904;2023-03-13T07:31:47;101703.20;;;8.69;64.10
66090;BME280;53113;45.602;11.904;2023-03-13T07:34:12;101705.02;;;8.78;64.06
66090;BME280;53113;45.602;11.904;2023-03-13T07:36:38;101711.95;;;8.87;64.25
66090;BME280;53113;45.602;11.904;2023-03-13T07:39:06;101713.34;;;8.98;64.34
66090;BME280;53113;45.602;11.904;2023-03-13T07:41:31;101710.86;;;9.08;64.21
66090;BME280;53113;45.602;11.904;2023-03-13T07:43:57;101710.48;;;9.18;64.23
66090;BME280;53113;45.602;11.904;2023-03-13T07:46:23;101708.35;;;9.28;64.26
66090;BME280;53113;45.602;11.904;2023-03-13T07:48:48;101706.84;;;9.40;64.28
66090;BME280;53113;45.602;11.904;2023-03-13T07:51:20;101708.66;;;9.52;64.18
66090;BME280;53113;45.602;11.904;2023-03-13T07:53:46;101705.66;;;9.64;64.08
66090;BME280;53113;45.602;11.904;2023-03-13T07:56:13;101709.04;;;9.76;64.04
66090;BME280;53113;45.602;11.904;2023-03-13T07:58:39;101708.89;;;9.88;63.97
66090;BME280;53113;45.602;11.904;2023-03-13T08:01:09;101716.64;;;10.01;63.97
66090;BME280;53113;45.602;11.904;2023-03-13T08:03:35;101720.50;;;10.14;63.78
66090;BME280;53113;45.602;11.904;2023-03-13T08:06:03;101717.48;;;10.27;63.64
66090;BME280;53113;45.602;11.904;2023-03-13T08:08:29;101716.02;;;10.40;63.38
66090;BME280;53113;45.602;11.904;2023-03-13T08:10:58;101705.86;;;10.53;63.30
66090;BME280;53113;45.602;11.904;2023-03-13T08:13:24;101701.70;;;10.69;63.25
66090;BME280;53113;45.602;11.904;2023-03-13T08:15:49;101698.16;;;10.86;63.31
66090;BME280;53113;45.602;11.904;2023-03-13T08:18:15;101696.47;;;11.05;63.09
66090;BME280;53113;45.602;11.904;2023-03-13T08:20:40;101698.17;;;11.26;63.00
66090;BME280;53113;45.602;11.904;2023-03-13T08:23:05;101695.31;;;11.48;62.83
66090;BME280;53113;45.602;11.904;2023-03-13T08:25:31;101694.55;;;11.74;62.60
66090;BME280;53113;45.602;11.904;2023-03-13T08:27:56;101694.66;;;12.05;62.68
66090;BME280;53113;45.602;11.904;2023-03-13T08:30:22;101695.12;;;12.38;62.22
66090;BME280;53113;45.602;11.904;2023-03-13T08:32:47;101685.89;;;12.69;61.64
66090;BME280;53113;45.602;11.904;2023-03-13T08:35:13;101681.05;;;12.97;60.95
66090;BME280;53113;45.602;11.904;2023-03-13T08:37:38;101677.20;;;13.24;60.20
66090;BME280;53113;45.602;11.904;2023-03-13T08:40:04;101677.77;;;13.49;59.49
66090;BME280;53113;45.602;11.904;2023-03-13T08:42:34;101670.95;;;13.71;58.49
66090;BME280;53113;45.602;11.904;2023-03-13T08:45:00;101674.32;;;13.93;58.16
66090;BME280;53113;45.602;11.904;2023-03-13T08:47:25;101671.77;;;14.15;57.69
66090;BME280;53113;45.602;11.904;2023-03-13T08:49:50;101674.90;;;14.37;57.08
66090;BME280;53113;45.602;11.904;2023-03-13T08:52:16;101673.37;;;14.60;56.38
66090;BME280;53113;45.602;11.904;2023-03-13T08:54:41;101673.46;;;14.81;55.76
66090;BME280;53113;45.602;11.904;2023-03-13T08:57:06;101674.87;;;15.02;55.03
66090;BME280;53113;45.602;11.904;2023-03-13T08:59:32;101675.91;;;15.22;54.37
66090;BME280;53113;45.602;11.904;2023-03-13T09:01:57;101677.04;;;15.43;53.84
66090;BME280;53113;45.602;11.904;2023-03-13T09:04:23;101672.63;;;15.67;53.18
66090;BME280;53113;45.602;11.904;2023-03-13T09:06:48;101670.69;;;15.91;52.43
66090;BME280;53113;45.602;11.904;2023-03-13T09:09:13;101667.77;;;16.17;52.00
66090;BME280;53113;45.602;11.904;2023-03-13T09:11:39;101665.95;;;16.45;51.45
66090;BME280;53113;45.602;11.904;2023-03-13T09:14:04;101665.60;;;16.74;50.62
66090;BME280;53113;45.602;11.904;2023-03-13T09:16:30;101667.58;;;17.03;49.82
66090;BME280;53113;45.602;11.904;2023-03-13T09:18:56;101664.70;;;17.29;48.56
66090;BME280;53113;45.602;11.904;2023-03-13T09:21:23;101667.38;;;17.49;47.13
66090;BME280;53113;45.602;11.904;2023-03-13T09:23:49;101664.04;;;17.64;45.87
66090;BME280;53113;45.602;11.904;2023-03-13T09:26:14;101663.91;;;17.75;45.20
66090;BME280;53113;45.602;11.904;2023-03-13T09:28:40;101660.48;;;17.88;44.30
66090;BME280;53113;45.602;11.904;2023-03-13T09:31:09;101658.94;;;18.02;43.83
66090;BME280;53113;45.602;11.904;2023-03-13T09:33:35;101660.67;;;18.18;43.50
66090;BME280;53113;45.602;11.904;2023-03-13T09:36:00;101667.10;;;18.36;43.27
66090;BME280;53113;45.602;11.904;2023-03-13T09:38:26;101675.59;;;18.56;43.09
66090;BME280;53113;45.602;11.904;2023-03-13T09:40:52;101679.50;;;18.78;42.84
66090;BME280;53113;45.602;11.904;2023-03-13T09:45:51;101678.05;;;19.17;41.89
66090;BME280;53113;45.602;11.904;2023-03-13T09:48:31;101666.59;;;19.33;41.51
66090;BME280;53113;45.602;11.904;2023-03-13T09:53:26;101660.17;;;19.71;40.50
66090;BME280;53113;45.602;11.904;2023-03-13T09:55:55;101657.19;;;19.96;39.84
66090;BME280;53113;45.602;11.904;2023-03-13T09:58:22;101654.59;;;20.18;39.24
66090;BME280;53113;45.602;11.904;2023-03-13T10:00:59;101649.84;;;20.36;38.62
66090;BME280;53113;45.602;11.904;2023-03-13T10:03:39;101649.54;;;20.55;38.26
66090;BME280;53113;45.602;11.904;2023-03-13T10:06:16;101646.42;;;20.72;37.75
66090;BME280;53113;45.602;11.904;2023-03-13T10:08:42;101644.62;;;20.88;37.54
66090;BME280;53113;45.602;11.904;2023-03-13T10:11:16;101645.48;;;21.04;37.26
66090;BME280;53113;45.602;11.904;2023-03-13T10:13:52;101640.52;;;21.20;36.88
66090;BME280;53113;45.602;11.904;2023-03-13T10:16:23;101642.62;;;21.34;36.31
66090;BME280;53113;45.602;11.904;2023-03-13T10:18:54;101637.62;;;21.44;36.04
66090;BME280;53113;45.602;11.904;2023-03-13T10:21:22;101637.89;;;21.53;35.75
66090;BME280;53113;45.602;11.904;2023-03-13T10:24:02;101637.23;;;21.58;35.40
66090;BME280;53113;45.602;11.904;2023-03-13T10:26:31;101637.11;;;21.64;35.13
66090;BME280;53113;45.602;11.904;2023-03-13T10:29:00;101638.97;;;21.73;34.98
66090;BME280;53113;45.602;11.904;2023-03-13T10:31:30;101635.98;;;21.87;34.68
66090;BME280;53113;45.602;11.904;2023-03-13T10:34:06;101633.55;;;22.04;34.63
66090;BME280;53113;45.602;11.904;2023-03-13T10:36:42;101630.10;;;22.24;34.10
66090;BME280;53113;45.602;11.904;2023-03-13T10:39:07;101622.58;;;22.40;33.35
66090;BME280;53113;45.602;11.904;2023-03-13T10:41:36;101607.50;;;22.51;32.69
66090;BME280;53113;45.602;11.904;2023-03-13T10:44:06;101605.48;;;22.62;31.94
66090;BME280;53113;45.602;11.904;2023-03-13T10:46:40;101600.39;;;22.72;31.65
66090;BME280;53113;45.602;11.904;2023-03-13T10:49:12;101604.82;;;22.82;31.27
66090;BME280;53113;45.602;11.904;2023-03-13T10:51:39;101599.32;;;22.94;31.02
66090;BME280;53113;45.602;11.904;2023-03-13T10:54:15;101593.10;;;23.06;30.76
66090;BME280;53113;45.602;11.904;2023-03-13T10:56:40;101594.30;;;23.20;30.35
66090;BME280;53113;45.602;11.904;2023-03-13T10:59:27;101594.18;;;23.34;29.93
66090;BME280;53113;45.602;11.904;2023-03-13T11:01:52;101598.71;;;23.51;29.74
66090;BME280;53113;45.602;11.904;2023-03-13T11:04:20;101596.61;;;23.66;29.22
66090;BME280;53113;45.602;11.904;2023-03-13T11:06:50;101590.95;;;23.82;28.97
66090;BME280;53113;45.602;11.904;2023-03-13T11:09:19;101594.53;;;23.99;28.71
66090;BME280;53113;45.602;11.904;2023-03-13T11:11:48;101590.11;;;24.18;28.93
66090;BME280;53113;45.602;11.904;2023-03-13T11:14:18;101584.85;;;24.37;28.87
66090;BME280;53113;45.602;11.904;2023-03-13T11:16:51;101586.68;;;24.55;28.63
66090;BME280;53113;45.602;11.904;2023-03-13T11:21:56;101581.11;;;24.89;28.41
66090;BME280;53113;45.602;11.904;2023-03-13T11:32:07;101573.55;;;25.36;27.44
66090;BME280;53113;45.602;11.904;2023-03-13T11:34:57;101563.91;;;25.38;27.25
66090;BME280;53113;45.602;11.904;2023-03-13T11:37:24;101561.83;;;25.37;26.97
66090;BME280;53113;45.602;11.904;2023-03-13T11:39:54;101552.20;;;25.33;26.61
66090;BME280;53113;45.602;11.904;2023-03-13T11:42:42;101547.05;;;25.28;26.57
66090;BME280;53113;45.602;11.904;2023-03-13T11:56:26;101526.17;;;24.88;25.73
66090;BME280;53113;45.602;11.904;2023-03-13T11:59:12;101516.69;;;24.76;25.70
66090;BME280;53113;45.602;11.904;2023-03-13T12:01:45;101511.31;;;24.60;25.59
66090;BME280;53113;45.602;11.904;2023-03-13T12:04:33;101518.06;;;24.45;25.66
66090;BME280;53113;45.602;11.904;2023-03-13T12:07:48;101524.04;;;24.33;26.13
66090;BME280;53113;45.602;11.904;2023-03-13T12:09:56;101524.27;;;24.28;26.23
66090;BME280;53113;45.602;11.904;2023-03-13T12:14:51;101521.13;;;24.37;26.45
66090;BME280;53113;45.602;11.904;2023-03-13T12:20:07;101505.94;;;24.58;26.16
66090;BME280;53113;45.602;11.904;2023-03-13T12:25:46;101492.62;;;24.84;26.30
66090;BME280;53113;45.602;11.904;2023-03-13T12:27:57;101489.70;;;24.97;26.06
66090;BME280;53113;45.602;11.904;2023-03-13T12:30:32;101489.09;;;25.06;25.87
66090;BME280;53113;45.602;11.904;2023-03-13T12:33:03;101481.04;;;25.15;25.64
66090;BME280;53113;45.602;11.904;2023-03-13T12:35:30;101471.61;;;25.28;25.58
66090;BME280;53113;45.602;11.904;2023-03-13T12:38:12;101458.34;;;25.46;25.65
66090;BME280;53113;45.602;11.904;2023-03-13T12:43:38;101460.55;;;25.96;25.43
66090;BME280;53113;45.602;11.904;2023-03-13T13:03:53;101443.08;;;26.96;24.52
66090;BME280;53113;45.602;11.904;2023-03-13T13:06:20;101437.92;;;27.03;24.41
66090;BME280;53113;45.602;11.904;2023-03-13T13:08:47;101432.20;;;27.14;24.45
66090;BME280;53113;45.602;11.904;2023-03-13T13:13:58;101424.34;;;27.39;23.98
66090;BME280;53113;45.602;11.904;2023-03-13T13:16:23;101418.59;;;27.42;23.82
66090;BME280;53113;45.602;11.904;2023-03-13T13:18:50;101412.58;;;27.45;23.73
66090;BME280;53113;45.602;11.904;2023-03-13T13:21:19;101409.94;;;27.49;23.77
66090;BME280;53113;45.602;11.904;2023-03-13T13:23:46;101405.72;;;27.58;23.79
66090;BME280;53113;45.602;11.904;2023-03-13T13:28:51;101405.59;;;27.64;23.38
66090;BME280;53113;45.602;11.904;2023-03-13T13:34:00;101399.39;;;27.56;23.13
66090;BME280;53113;45.602;11.904;2023-03-13T13:36:26;101392.31;;;27.52;23.18
66090;BME280;53113;45.602;11.904;2023-03-13T13:38:52;101390.55;;;27.47;23.14
66090;BME280;53113;45.602;11.904;2023-03-13T13:43:44;101382.27;;;27.31;23.04
66090;BME280;53113;45.602;11.904;2023-03-13T13:48:41;101383.39;;;27.19;23.30
66090;BME280;53113;45.602;11.904;2023-03-13T13:53:52;101381.31;;;27.13;23.33
66090;BME280;53113;45.602;11.904;2023-03-13T14:01:27;101367.65;;;27.02;23.39
66090;BME280;53113;45.602;11.904;2023-03-13T14:03:53;101372.40;;;27.04;23.40
66090;BME280;53113;45.602;11.904;2023-03-13T14:06:23;101373.09;;;27.02;23.25
66090;BME280;53113;45.602;11.904;2023-03-13T14:08:53;101374.48;;;27.01;23.26